FHAHF LFMD-LFLJ
Flight info
| Callsign | FHAHF |
|---|---|
| Flight time | 0h 39m |
| Altitude | 24000 |
| Route | BARSO DCT IRMAR DCT ROBEX DCT KINES DCT VANAS |
| Aircraft | SF50/L-BDGRSWY/LB2U2 |
Departure
| Time | 2026-04-19 07:57 |
|---|---|
| Airport | Cannes Mandelieu Airport (LFMD) |
Arrival
| Time | 2026-04-19 08:36 |
|---|---|
| Airport | Courchevel Altiport (LFLJ) |
| Time | Latitude | Longitude | Altitude | Speed | Heading |
|---|---|---|---|---|---|
| 2026-04-19 07:41 | 43.54644 | 6.95368 | 11 ft | 0 kts | 83° |
| 2026-04-19 07:53 | 43.54643 | 6.95373 | 11 ft | 1 kts | 162° |
| 2026-04-19 07:53 | 43.54641 | 6.95323 | 11 ft | 10 kts | 265° |
| 2026-04-19 07:54 | 43.54688 | 6.95275 | 11 ft | 12 kts | 352° |
| 2026-04-19 07:54 | 43.54778 | 6.95259 | 11 ft | 14 kts | 352° |
| 2026-04-19 07:54 | 43.54883 | 6.95240 | 11 ft | 16 kts | 352° |
| 2026-04-19 07:54 | 43.55002 | 6.95218 | 11 ft | 18 kts | 353° |
| 2026-04-19 07:55 | 43.55127 | 6.95196 | 12 ft | 17 kts | 353° |
| 2026-04-19 07:55 | 43.55242 | 6.95175 | 12 ft | 16 kts | 352° |
| 2026-04-19 07:55 | 43.55346 | 6.95158 | 12 ft | 14 kts | 352° |
| 2026-04-19 07:55 | 43.55421 | 6.95134 | 12 ft | 9 kts | 321° |
| 2026-04-19 07:56 | 43.55436 | 6.95068 | 12 ft | 6 kts | 262° |
| 2026-04-19 07:56 | 43.55430 | 6.95001 | 13 ft | 8 kts | 250° |
| 2026-04-19 07:56 | 43.55341 | 6.94991 | 13 ft | 30 kts | 173° |
| 2026-04-19 07:56 | 43.54867 | 6.95077 | 39 ft | 100 kts | 169° |
| 2026-04-19 07:57 | 43.54125 | 6.95222 | 479 ft | 114 kts | 163° |
| 2026-04-19 07:57 | 43.53336 | 6.95638 | 979 ft | 128 kts | 153° |
| 2026-04-19 07:57 | 43.52422 | 6.96166 | 1350 ft | 162 kts | 156° |
| 2026-04-19 07:57 | 43.51296 | 6.96786 | 1647 ft | 186 kts | 158° |
| 2026-04-19 07:58 | 43.50024 | 6.97488 | 1934 ft | 206 kts | 157° |
| 2026-04-19 07:58 | 43.48808 | 6.98643 | 1996 ft | 227 kts | 133° |
| 2026-04-19 07:58 | 43.47771 | 7.00332 | 2010 ft | 234 kts | 130° |
| 2026-04-19 07:58 | 43.46685 | 7.02026 | 2010 ft | 236 kts | 131° |
| 2026-04-19 07:59 | 43.45593 | 7.03714 | 2009 ft | 236 kts | 131° |
| 2026-04-19 07:59 | 43.44509 | 7.05406 | 2136 ft | 230 kts | 131° |
| 2026-04-19 07:59 | 43.43467 | 7.07041 | 2751 ft | 225 kts | 132° |
| 2026-04-19 07:59 | 43.42442 | 7.08631 | 3365 ft | 220 kts | 133° |
| 2026-04-19 08:00 | 43.41438 | 7.10198 | 3961 ft | 217 kts | 133° |
| 2026-04-19 08:00 | 43.40450 | 7.11751 | 4566 ft | 215 kts | 134° |
| 2026-04-19 08:00 | 43.39656 | 7.13469 | 5162 ft | 216 kts | 105° |
| 2026-04-19 08:00 | 43.39673 | 7.15499 | 5761 ft | 211 kts | 82° |
| 2026-04-19 08:01 | 43.39834 | 7.17461 | 6376 ft | 208 kts | 83° |
| 2026-04-19 08:01 | 43.39989 | 7.19429 | 6974 ft | 206 kts | 83° |
| 2026-04-19 08:01 | 43.40142 | 7.21375 | 7565 ft | 204 kts | 83° |
| 2026-04-19 08:01 | 43.40295 | 7.23299 | 8176 ft | 201 kts | 83° |
| 2026-04-19 08:02 | 43.40624 | 7.25125 | 8784 ft | 195 kts | 54° |
| 2026-04-19 08:02 | 43.41710 | 7.26052 | 9329 ft | 183 kts | 359° |
| 2026-04-19 08:02 | 43.42909 | 7.25702 | 9908 ft | 175 kts | 330° |
| 2026-04-19 08:02 | 43.43956 | 7.24886 | 10434 ft | 174 kts | 329° |
| 2026-04-19 08:03 | 43.45069 | 7.24244 | 10958 ft | 177 kts | 335° |
| 2026-04-19 08:03 | 43.46228 | 7.23664 | 11494 ft | 178 kts | 335° |
| 2026-04-19 08:03 | 43.47390 | 7.23081 | 12039 ft | 178 kts | 335° |
| 2026-04-19 08:03 | 43.48559 | 7.22498 | 12588 ft | 178 kts | 335° |
| 2026-04-19 08:04 | 43.49723 | 7.21912 | 13157 ft | 178 kts | 335° |
| 2026-04-19 08:04 | 43.50881 | 7.21331 | 13727 ft | 177 kts | 336° |
| 2026-04-19 08:04 | 43.52032 | 7.20753 | 14257 ft | 175 kts | 335° |
| 2026-04-19 08:04 | 43.53171 | 7.20179 | 14778 ft | 173 kts | 335° |
| 2026-04-19 08:05 | 43.54296 | 7.19613 | 15303 ft | 171 kts | 334° |
| 2026-04-19 08:05 | 43.55407 | 7.19051 | 15842 ft | 169 kts | 334° |
| 2026-04-19 08:05 | 43.56526 | 7.18484 | 16156 ft | 180 kts | 334° |
| 2026-04-19 08:05 | 43.57742 | 7.17868 | 16425 ft | 192 kts | 335° |
| 2026-04-19 08:06 | 43.59031 | 7.17218 | 16695 ft | 202 kts | 335° |
| 2026-04-19 08:06 | 43.60379 | 7.16539 | 16965 ft | 210 kts | 335° |
| 2026-04-19 08:06 | 43.61776 | 7.15837 | 17244 ft | 216 kts | 334° |
| 2026-04-19 08:06 | 43.63209 | 7.15113 | 17511 ft | 221 kts | 334° |
| 2026-04-19 08:07 | 43.64649 | 7.14389 | 17779 ft | 225 kts | 334° |
| 2026-04-19 08:07 | 43.66125 | 7.13641 | 18049 ft | 227 kts | 334° |
| 2026-04-19 08:07 | 43.67614 | 7.12890 | 18322 ft | 229 kts | 334° |
| 2026-04-19 08:07 | 43.69117 | 7.12128 | 18562 ft | 231 kts | 334° |
| 2026-04-19 08:08 | 43.70626 | 7.11366 | 18792 ft | 231 kts | 334° |
| 2026-04-19 08:08 | 43.72133 | 7.10597 | 19023 ft | 231 kts | 334° |
| 2026-04-19 08:08 | 43.73642 | 7.09835 | 19267 ft | 231 kts | 334° |
| 2026-04-19 08:08 | 43.75145 | 7.09074 | 19506 ft | 229 kts | 333° |
| 2026-04-19 08:09 | 43.76637 | 7.08313 | 19750 ft | 228 kts | 333° |
| 2026-04-19 08:09 | 43.78110 | 7.07562 | 19993 ft | 229 kts | 334° |
| 2026-04-19 08:09 | 43.79607 | 7.06806 | 20245 ft | 229 kts | 333° |
| 2026-04-19 08:09 | 43.81105 | 7.06042 | 20500 ft | 229 kts | 334° |
| 2026-04-19 08:10 | 43.82601 | 7.05283 | 20741 ft | 228 kts | 333° |
| 2026-04-19 08:10 | 43.84089 | 7.04526 | 21003 ft | 228 kts | 333° |
| 2026-04-19 08:10 | 43.85581 | 7.03767 | 21261 ft | 229 kts | 333° |
| 2026-04-19 08:10 | 43.87072 | 7.03005 | 21518 ft | 228 kts | 333° |
| 2026-04-19 08:11 | 43.88567 | 7.02243 | 21777 ft | 229 kts | 333° |
| 2026-04-19 08:11 | 43.90059 | 7.01480 | 22037 ft | 228 kts | 333° |
| 2026-04-19 08:11 | 43.91546 | 7.00724 | 22300 ft | 227 kts | 333° |
| 2026-04-19 08:11 | 43.93005 | 6.99978 | 22566 ft | 227 kts | 333° |
| 2026-04-19 08:12 | 43.94484 | 6.99219 | 22838 ft | 226 kts | 333° |
| 2026-04-19 08:12 | 43.95962 | 6.98465 | 23111 ft | 226 kts | 333° |
| 2026-04-19 08:12 | 43.97432 | 6.97713 | 23382 ft | 225 kts | 333° |
| 2026-04-19 08:12 | 43.98898 | 6.96965 | 23651 ft | 225 kts | 333° |
| 2026-04-19 08:13 | 44.00362 | 6.96215 | 23886 ft | 224 kts | 333° |
| 2026-04-19 08:13 | 44.01825 | 6.95468 | 24096 ft | 226 kts | 333° |
| 2026-04-19 08:13 | 44.03330 | 6.94692 | 24100 ft | 236 kts | 333° |
| 2026-04-19 08:13 | 44.04896 | 6.93885 | 24102 ft | 244 kts | 333° |
| 2026-04-19 08:14 | 44.06496 | 6.93066 | 24099 ft | 252 kts | 333° |
| 2026-04-19 08:14 | 44.09898 | 6.91320 | 24104 ft | 268 kts | 334° |
| 2026-04-19 08:14 | 44.11666 | 6.90412 | 24102 ft | 274 kts | 334° |
| 2026-04-19 08:15 | 44.13469 | 6.89486 | 24101 ft | 279 kts | 335° |
| 2026-04-19 08:15 | 44.15385 | 6.88865 | 24098 ft | 287 kts | 346° |
| 2026-04-19 08:15 | 44.17391 | 6.88581 | 24100 ft | 291 kts | 348° |
| 2026-04-19 08:15 | 44.19415 | 6.88272 | 24106 ft | 295 kts | 347° |
| 2026-04-19 08:16 | 44.21455 | 6.87955 | 24115 ft | 295 kts | 347° |
| 2026-04-19 08:16 | 44.23495 | 6.87653 | 24110 ft | 295 kts | 347° |
| 2026-04-19 08:16 | 44.25510 | 6.87352 | 24109 ft | 296 kts | 348° |
| 2026-04-19 08:16 | 44.27553 | 6.87046 | 24104 ft | 294 kts | 347° |
| 2026-04-19 08:17 | 44.29582 | 6.86739 | 24102 ft | 293 kts | 347° |
| 2026-04-19 08:17 | 44.31606 | 6.86430 | 24101 ft | 293 kts | 347° |
| 2026-04-19 08:17 | 44.33633 | 6.86119 | 24108 ft | 293 kts | 347° |
| 2026-04-19 08:17 | 44.35667 | 6.85815 | 24110 ft | 295 kts | 347° |
| 2026-04-19 08:18 | 44.37710 | 6.85504 | 24119 ft | 296 kts | 347° |
| 2026-04-19 08:18 | 44.39754 | 6.85199 | 24118 ft | 294 kts | 347° |
| 2026-04-19 08:18 | 44.41758 | 6.84892 | 24120 ft | 293 kts | 347° |
| 2026-04-19 08:18 | 44.43793 | 6.84584 | 24114 ft | 294 kts | 347° |
| 2026-04-19 08:19 | 44.45827 | 6.84275 | 24118 ft | 294 kts | 347° |
| 2026-04-19 08:19 | 44.47867 | 6.83968 | 24131 ft | 296 kts | 347° |
| 2026-04-19 08:19 | 44.49919 | 6.83654 | 24129 ft | 297 kts | 347° |
| 2026-04-19 08:19 | 44.51972 | 6.83343 | 24134 ft | 296 kts | 347° |
| 2026-04-19 08:20 | 44.54019 | 6.83034 | 24128 ft | 295 kts | 347° |
| 2026-04-19 08:20 | 44.56057 | 6.82723 | 24131 ft | 295 kts | 347° |
| 2026-04-19 08:20 | 44.58069 | 6.82411 | 24135 ft | 295 kts | 347° |
| 2026-04-19 08:20 | 44.60109 | 6.82101 | 24129 ft | 296 kts | 347° |
| 2026-04-19 08:21 | 44.62162 | 6.81848 | 24124 ft | 297 kts | 349° |
| 2026-04-19 08:21 | 44.64224 | 6.81672 | 24130 ft | 297 kts | 350° |
| 2026-04-19 08:21 | 44.66294 | 6.81521 | 24130 ft | 298 kts | 350° |
| 2026-04-19 08:21 | 44.68358 | 6.81336 | 24132 ft | 297 kts | 349° |
| 2026-04-19 08:22 | 44.70424 | 6.81143 | 24136 ft | 298 kts | 349° |
| 2026-04-19 08:22 | 44.72494 | 6.80958 | 24136 ft | 298 kts | 349° |
| 2026-04-19 08:22 | 44.74565 | 6.80781 | 24135 ft | 298 kts | 349° |
| 2026-04-19 08:22 | 44.76632 | 6.80599 | 24122 ft | 297 kts | 349° |
| 2026-04-19 08:23 | 44.78658 | 6.80417 | 24129 ft | 295 kts | 349° |
| 2026-04-19 08:23 | 44.80715 | 6.80231 | 24135 ft | 298 kts | 349° |
| 2026-04-19 08:23 | 44.82779 | 6.80046 | 24120 ft | 296 kts | 350° |
| 2026-04-19 08:23 | 44.84831 | 6.79871 | 24133 ft | 296 kts | 349° |
| 2026-04-19 08:24 | 44.86889 | 6.79682 | 24137 ft | 297 kts | 349° |
| 2026-04-19 08:24 | 44.88964 | 6.79494 | 24142 ft | 300 kts | 349° |
| 2026-04-19 08:24 | 44.91044 | 6.79312 | 24141 ft | 299 kts | 349° |
| 2026-04-19 08:24 | 44.93116 | 6.79130 | 24137 ft | 298 kts | 349° |
| 2026-04-19 08:25 | 44.95181 | 6.78950 | 24140 ft | 297 kts | 349° |
| 2026-04-19 08:25 | 44.97231 | 6.78758 | 23900 ft | 304 kts | 349° |
| 2026-04-19 08:25 | 44.99341 | 6.78570 | 23469 ft | 302 kts | 350° |
| 2026-04-19 08:25 | 45.01435 | 6.78388 | 22977 ft | 302 kts | 350° |
| 2026-04-19 08:26 | 45.03530 | 6.78197 | 22501 ft | 302 kts | 350° |
| 2026-04-19 08:26 | 45.05625 | 6.78009 | 22023 ft | 302 kts | 351° |
| 2026-04-19 08:26 | 45.07701 | 6.77791 | 21490 ft | 291 kts | 349° |
| 2026-04-19 08:26 | 45.09693 | 6.77313 | 20298 ft | 290 kts | 341° |
| 2026-04-19 08:27 | 45.11620 | 6.76491 | 19123 ft | 291 kts | 336° |
| 2026-04-19 08:27 | 45.13509 | 6.75500 | 18081 ft | 286 kts | 333° |
| 2026-04-19 08:27 | 45.15287 | 6.74424 | 17051 ft | 278 kts | 330° |
| 2026-04-19 08:27 | 45.17001 | 6.73280 | 16368 ft | 265 kts | 330° |
| 2026-04-19 08:28 | 45.18564 | 6.72133 | 15872 ft | 242 kts | 328° |
| 2026-04-19 08:28 | 45.20012 | 6.71071 | 15534 ft | 230 kts | 329° |
| 2026-04-19 08:28 | 45.21432 | 6.70023 | 15226 ft | 224 kts | 328° |
| 2026-04-19 08:28 | 45.22806 | 6.69008 | 14822 ft | 228 kts | 329° |
| 2026-04-19 08:29 | 45.24221 | 6.67888 | 14533 ft | 230 kts | 327° |
| 2026-04-19 08:29 | 45.25619 | 6.66706 | 14086 ft | 238 kts | 326° |
| 2026-04-19 08:29 | 45.26997 | 6.65490 | 13875 ft | 233 kts | 326° |
| 2026-04-19 08:29 | 45.28347 | 6.64286 | 13723 ft | 226 kts | 326° |
| 2026-04-19 08:30 | 45.29694 | 6.63221 | 13608 ft | 222 kts | 332° |
| 2026-04-19 08:30 | 45.31147 | 6.62224 | 12867 ft | 238 kts | 330° |
| 2026-04-19 08:30 | 45.32515 | 6.61107 | 12287 ft | 220 kts | 328° |
| 2026-04-19 08:30 | 45.33833 | 6.60023 | 11630 ft | 219 kts | 329° |
| 2026-04-19 08:31 | 45.35135 | 6.58981 | 11178 ft | 208 kts | 328° |
| 2026-04-19 08:31 | 45.36350 | 6.57965 | 10615 ft | 198 kts | 329° |
| 2026-04-19 08:31 | 45.37534 | 6.57049 | 10166 ft | 190 kts | 332° |
| 2026-04-19 08:31 | 45.38716 | 6.56302 | 9906 ft | 178 kts | 345° |
| 2026-04-19 08:32 | 45.39932 | 6.56447 | 9529 ft | 184 kts | 21° |
| 2026-04-19 08:32 | 45.40954 | 6.57642 | 8783 ft | 200 kts | 54° |
| 2026-04-19 08:32 | 45.41414 | 6.59477 | 8271 ft | 199 kts | 80° |
| 2026-04-19 08:32 | 45.41067 | 6.61282 | 7921 ft | 190 kts | 131° |
| 2026-04-19 08:33 | 45.40048 | 6.62548 | 7260 ft | 197 kts | 139° |
| 2026-04-19 08:33 | 45.39893 | 6.64116 | 7258 ft | 168 kts | 47° |
| 2026-04-19 08:33 | 45.40979 | 6.64501 | 6940 ft | 158 kts | 357° |
| 2026-04-19 08:33 | 45.41972 | 6.64522 | 6961 ft | 133 kts | 0° |
| 2026-04-19 08:34 | 45.42851 | 6.64590 | 6947 ft | 123 kts | 0° |
| 2026-04-19 08:34 | 45.43662 | 6.64920 | 6936 ft | 128 kts | 38° |
| 2026-04-19 08:34 | 45.43997 | 6.66146 | 7027 ft | 144 kts | 97° |
| 2026-04-19 08:34 | 45.43349 | 6.67125 | 7159 ft | 147 kts | 172° |
| 2026-04-19 08:35 | 45.42456 | 6.66730 | 7173 ft | 127 kts | 212° |
| 2026-04-19 08:35 | 45.41732 | 6.66040 | 7072 ft | 123 kts | 220° |
| 2026-04-19 08:35 | 45.41093 | 6.65284 | 6893 ft | 116 kts | 222° |
| 2026-04-19 08:35 | 45.40507 | 6.64530 | 6729 ft | 112 kts | 227° |
| 2026-04-19 08:36 | 45.39939 | 6.63751 | 6509 ft | 117 kts | 227° |
| 2026-04-19 08:36 | 45.39544 | 6.63188 | 6733 ft | 2 kts | 262° |